Weather observations for the past three days for
Brady, Curtis Field Airport
Metric (Imperial)
Date Time (cdt) Wind (kph) Vis. (km) Weather Sky Cond. Temperature (ºC) Relative Humidity Wind Chill (°C) Heat Index (°C) Pressure Precipitation (cm)
Air Dwpt 6 hour altimeter (cm) sea level (mb) 1 hr 3 hr 6 hr
Max. Min.
03 18:35 SE 24 G 33 16.09 Fair CLR 36 16 30% 36 75.79 0.0
03 18:15 SE 17 G 28 16.09 Fair CLR 36 16 30% 36 75.79 0.0
03 17:55 SE 20 G 30 16.09 Fair CLR 36 15 28% 36 75.79 0.0
03 17:35 SE 20 16.09 Fair CLR 36 16 30% 36 75.79 0.0
03 17:15 E 19 G 31 16.09 Fair CLR 36 17 32% 37 75.79 0.0
03 16:55 E 31 16.09 Fair CLR 34 17 36% 35 75.82 0.0
03 16:35 SE 24 G 37 16.09 Fair CLR 36 16 30% 36 75.82 0.0
03 16:15 SE 31 G 43 16.09 Fair CLR 37 16 29% 37 75.82 0.0
03 15:55 Calm 16.09 Fair CLR 37 14 25% 36 75.82 0.0
03 15:35 N 11 16.09 Fair CLR 37 14 25% 36 75.84 0.0
03 15:15 N 20 16.09 Fair CLR 36 15 28% 36 75.87 0.0
03 14:55 Vrbl 9 16.09 Fair CLR 37 14 25% 36 75.9 0.0
03 14:35 S 13 G 24 16.09 A Few Clouds FEW090 38 15 25% 38 75.9 0.0
03 14:15 Vrbl 7 16.09 A Few Clouds FEW090 37 14 25% 36 75.92 0.0
03 13:55 Calm 16.09 A Few Clouds FEW080 37 15 27% 37 75.95 0.0
03 13:35 Vrbl 9 G 20 16.09 Fair CLR 36 17 32% 37 75.97 0.0
03 13:15 SW 13 G 24 16.09 Fair CLR 36 17 32% 37 76 0.0
03 12:55 S 13 G 30 16.09 Fair CLR 35 19 39% 37 76.05 0.0
03 12:35 Vrbl 11 G 22 16.09 Fair CLR 35 19 39% 37 76.05 0.0
03 12:15 SW 19 16.09 Fair CLR 34 20 44% 36 76.07 0.0
03 11:55 S 17 16.09 Fair CLR 34 20 44% 36 76.07 0.0
03 11:35 SW 19 16.09 Fair CLR 33 20 46% 35 76.07 0.0
03 11:15 SW 17 G 28 16.09 Fair CLR 32 21 52% 35 76.1 0.0
03 10:55 SW 19 16.09 Fair CLR 31 21 55% 34 76.1 0.0
03 10:35 S 22 16.09 Fair CLR 30 21 59% 33 76.07 0.0
03 10:15 S 20 G 31 16.09 Fair CLR 30 21 59% 33 76.07 0.0
03 09:55 S 24 16.09 Fair CLR 29 21 62% 31 76.1 0.0
03 09:35 S 22 16.09 Fair CLR 28 21 66% 30 76.07 0.0
03 09:15 S 24 16.09 Fair CLR 28 21 66% 30 76.1 0.0
03 08:55 S 20 16.09 Fair CLR 27 21 70% 29 76.1 0.0
03 08:35 S 13 16.09 Fair CLR 26 21 74% 27 76.1 0.0
03 08:15 S 9 16.09 Fair CLR 25 21 79% 26 76.1 0.0
03 07:55 SW 7 16.09 Fair CLR 24 20 78% 24 76.07 0.0
03 07:35 S 11 16.09 Fair CLR 24 20 78% 24 76.07 0.0
03 07:15 S 9 16.09 Fair CLR 24 20 78% 24 76.05 0.0
03 06:55 SW 11 16.09 A Few Clouds FEW065 24 20 78% 24 76.05 0.0
03 06:35 S 7 16.09 Fair CLR 24 19 74% 25 76.02 0.0
03 06:15 Calm 16.09 Fair CLR 24 19 74% 25 76.02 0.0
03 05:55 S 6 16.09 Fair CLR 24 19 74% 25 76.02 0.0
03 05:35 S 7 16.09 Fair CLR 24 18 69% 25 76.02 0.0
03 05:15 S 6 16.09 Fair CLR 24 18 69% 25 76.02 0.0
03 04:55 S 7 16.09 Fair CLR 25 18 65% 26 76.02 0.0
03 04:35 S 6 16.09 Fair CLR 25 18 65% 26 76.02 0.0
03 04:15 SE 9 16.09 Fair CLR 24 18 69% 25 76.02 0.0
03 03:55 SE 9 16.09 Fair CLR 24 18 69% 25 76.05 0.0
03 03:35 SE 9 16.09 Fair CLR 25 18 65% 26 76.05 0.0
03 03:15 SE 9 16.09 Fair CLR 25 18 65% 26 76.05 0.0
03 02:55 SE 9 16.09 Fair CLR 25 18 65% 26 76.05 0.0
03 02:35 SE 9 16.09 Fair CLR 25 18 65% 26 76.07 0.0
03 02:15 SE 7 16.09 Fair CLR 26 18 61% 27 76.07 0.0
03 01:55 Vrbl 11 16.09 Fair CLR 26 18 61% 27 76.1 0.0
03 01:35 SE 9 16.09 A Few Clouds FEW095 26 17 58% 27 76.1 0.0
03 01:15 E 7 16.09 Fair CLR 26 17 58% 27 76.07 0.0
03 00:55 E 7 16.09 A Few Clouds FEW055 FEW100 27 17 54% 28 76.07 0.0
03 00:35 E 9 16.09 Fair CLR 27 17 54% 28 76.1 0.0
03 00:15 SE 9 16.09 Fair CLR 28 17 51% 29 76.07 0.0
02 23:55 SE 7 16.09 A Few Clouds FEW040 FEW050 28 17 51% 29 76.07 0.0
02 23:35 SE 7 16.09 Fair CLR 28 17 51% 29 76.07 0.0
02 23:15 E 9 16.09 Fair CLR 28 17 51% 29 76.07 0.0
02 22:55 SE 13 16.09 Fair CLR 29 17 48% 29 76.07 0.0
02 22:35 E 11 16.09 Fair CLR 29 17 48% 29 76.07 0.0
02 22:15 E 7 16.09 Fair CLR 29 17 48% 29 76.05 0.0
02 21:55 E 11 16.09 Heavy Rain CLR 30 17 46% 30 76.05 0.0
02 21:35 E 9 16.09 Fair CLR 30 17 46% 30 76.02 0.0
02 21:15 E 11 16.09 Fair CLR 31 16 40% 31 76 0.0
02 20:55 E 13 16.09 Fair CLR 31 16 40% 31 75.97 0.0
02 20:35 E 9 16.09 Fair CLR 32 14 33% 31 75.97 0.0
02 20:15 E 9 16.09 Fair CLR 33 14 32% 32 75.95 0.0
02 19:55 E 9 16.09 Fair CLR 34 14 30% 33 75.95 0.0
02 19:35 E 11 16.09 Fair CLR 35 14 28% 34 75.95 0.0
02 19:15 E 11 16.09 Fair CLR 35 14 28% 34 75.95 0.0
02 18:55 E 17 16.09 Fair CLR 36 14 27% 35 75.95 0.0
02 18:35 E 15 16.09 Partly Cloudy SCT090 36 14 27% 35 75.95 0.0
02 18:15 NE 15 G 26 16.09 Partly Cloudy SCT090 36 14 27% 35 75.95 0.0
02 17:55 NE 13 16.09 Fair CLR 37 14 25% 36 75.95 0.0
02 17:35 Vrbl 7 16.09 Fair CLR 36 14 27% 35 75.95 0.0
02 17:15 E 15 16.09 Fair CLR 37 14 25% 36 75.97 0.0
02 16:55 Vrbl 7 16.09 Fair CLR 37 14 25% 36 75.97 0.0
02 16:35 E 15 16.09 Fair CLR 36 14 27% 35 75.97 0.0
02 16:15 Vrbl 11 G 24 16.09 Fair CLR 36 14 27% 35 76 0.0
02 15:55 E 17 16.09 A Few Clouds FEW090 36 15 28% 36 76.02 0.0
02 15:35 SE 9 G 20 16.09 Fair CLR 35 14 28% 34 76.05 0.0
02 15:15 Calm 16.09 Fair CLR 36 13 25% 35 76.07 0.0
02 14:55 Calm 16.09 Partly Cloudy SCT085 36 13 25% 35 76.07 0.0
02 14:35 Vrbl 9 G 20 16.09 Mostly Cloudy BKN080 36 13 25% 35 76.1 0.0
02 14:15 S 7 16.09 Partly Cloudy SCT080 36 14 27% 35 76.12 0.0
02 13:55 N 7 G 20 16.09 Fair CLR 35 15 30% 35 76.15 0.0
02 13:35 E 6 16.09 A Few Clouds FEW100 34 14 30% 33 76.17 0.0
02 13:15 Calm 16.09 Mostly Cloudy FEW070 BKN100 34 15 32% 34 76.2 0.0
02 12:55 Vrbl 6 16.09 A Few Clouds FEW070 34 14 30% 33 76.23 0.0
02 12:35 Calm 16.09 Fair CLR 34 15 32% 34 76.25 0.0
02 12:15 Vrbl 7 16.09 Fair CLR 33 16 36% 33 76.28 0.0
02 11:55 SW 9 G 20 16.09 Fair CLR 33 16 36% 33 76.28 0.0
02 11:35 SW 13 G 24 16.09 Fair CLR 33 17 38% 33 76.3 0.0
02 11:15 SW 15 16.09 Fair CLR 33 18 41% 34 76.3 0.0
02 10:55 SW 19 16.09 Fair CLR 32 18 43% 33 76.3 0.0
02 10:35 SW 15 16.09 Fair CLR 31 18 46% 32 76.3 0.0
02 10:15 SW 19 16.09 Fair CLR 30 18 49% 31 76.3 0.0
02 09:55 SW 17 16.09 Fair CLR 29 18 51% 30 76.3 0.0
02 09:35 SW 17 16.09 Fair CLR 28 19 58% 29 76.3 0.0
02 09:15 SW 13 16.09 Fair CLR 27 19 62% 28 76.3 0.0
02 08:55 SW 13 16.09 Fair CLR 26 19 65% 27 76.3 0.0
02 08:35 SW 11 16.09 Fair CLR 25 19 69% 26 76.3 0.0
02 08:15 SW 6 16.09 Fair CLR 24 19 74% 25 76.28 0.0
02 07:55 Calm 16.09 Fair CLR 23 18 74% 76.25 0.0
02 07:35 Calm 16.09 Fair CLR 23 18 74% 76.25 0.0
02 07:15 Calm 16.09 Fair CLR 23 18 74% 76.25 0.0
02 06:55 Calm 16.09 Fair CLR 23 18 74% 76.25 0.0
02 06:35 Calm 16.09 Fair CLR 23 18 74% 76.23 0.0
02 06:15 S 7 16.09 Fair CLR 24 18 69% 25 76.25 0.0
02 05:55 S 6 16.09 Fair CLR 23 18 74% 76.23 0.0
02 05:35 Calm 16.09 Fair CLR 23 18 74% 76.25 0.0
02 05:15 SE 7 16.09 Fair CLR 24 18 69% 25 76.25 0.0
02 04:55 S 7 16.09 Fair CLR 24 18 69% 25 76.25 0.0
02 04:35 SE 7 16.09 Fair CLR 24 18 69% 25 76.25 0.0
02 04:15 SE 7 16.09 A Few Clouds FEW044 FEW060 24 18 69% 25 76.25 0.0
02 03:55 SE 6 16.09 Fair CLR 24 18 69% 25 76.25 0.0
02 03:35 SE 7 16.09 A Few Clouds FEW050 25 18 65% 26 76.25 0.0
02 03:15 SE 7 16.09 Mostly Cloudy SCT050 BKN055 25 18 65% 26 76.25 0.0
02 02:55 SE 7 16.09 Mostly Cloudy SCT050 BKN055 25 18 65% 26 76.25 0.0
02 02:35 SE 9 16.09 A Few Clouds FEW048 FEW055 25 17 61% 26 76.25 0.0
02 02:15 SE 9 16.09 A Few Clouds FEW050 FEW055 25 17 61% 26 76.25 0.0
02 01:55 SE 9 16.09 A Few Clouds FEW050 FEW055 26 17 58% 27 76.25 0.0
02 01:35 SE 9 16.09 Fair CLR 26 17 58% 27 76.25 0.0
02 01:15 SE 7 16.09 Fair CLR 26 16 54% 27 76.25 0.0
02 00:55 SE 7 16.09 Fair CLR 26 16 54% 27 76.25 0.0
02 00:35 SE 6 16.09 Fair CLR 26 16 54% 27 76.25 0.0
02 00:15 SE 7 16.09 Fair CLR 27 16 51% 27 76.23 0.0
01 23:55 SE 9 16.09 Fair CLR 27 16 51% 27 76.25 0.0
01 23:35 SE 9 16.09 Fair CLR 27 16 51% 27 76.23 0.0
01 23:15 SE 7 16.09 Fair CLR 28 16 48% 28 76.23 0.0
01 22:55 SE 9 16.09 Fair CLR 28 16 48% 28 76.23 0.0
01 22:35 SE 7 16.09 Fair CLR 29 16 45% 29 76.2 0.0
01 22:15 SE 9 16.09 Fair CLR 29 16 45% 29 76.2 0.0
01 21:55 SE 9 16.09 Fair CLR 30 16 43% 30 76.17 0.0
01 21:35 SE 9 16.09 Fair CLR 30 15 40% 30 76.15 0.0
01 21:15 SE 7 16.09 Fair CLR 30 15 40% 30 76.12 0.0
01 20:55 SE 9 16.09 Fair CLR 31 14 35% 30 76.1 0.0
01 20:35 SE 9 16.09 Fair CLR 31 14 35% 30 76.1 0.0
01 20:15 SE 9 16.09 Fair CLR 32 14 33% 31 76.07 0.0
01 19:55 SE 9 16.09 Fair CLR 33 14 32% 32 76.07 0.0
01 19:35 E 13 16.09 Fair CLR 34 14 30% 33 76.07 0.0
01 19:15 SE 13 16.09 Fair CLR 34 14 30% 33 76.07 0.0
01 18:55 E 17 16.09 Fair CLR 35 13 26% 34 76.07 0.0
01 18:35 E 13 G 22 16.09 Fair CLR 34 14 30% 33 76.07 0.0
01 18:15 SE 15 16.09 Partly Cloudy SCT100 35 13 26% 34 76.07 0.0
01 17:55 E 15 16.09 Overcast OVC095 36 13 25% 35 76.05 0.0
01 17:35 Vrbl 11 14.48 Overcast BKN085 OVC100 36 13 25% 35 76.05 0.0
01 17:15 Vrbl 11 16.09 Mostly Cloudy BKN090 BKN110 36 13 25% 35 76.07 0.0
01 16:55 S 7 16.09 Partly Cloudy FEW090 SCT110 35 13 26% 34 76.07 0.0
01 16:35 SE 19 16.09 A Few Clouds FEW095 36 13 25% 35 76.1 0.0
01 16:15 Vrbl 7 16.09 Fair CLR 34 12 26% 33 76.1 0.0
01 15:55 E 13 16.09 Fair CLR 35 12 25% 34 76.15 0.0
01 15:35 SE 15 16.09 Partly Cloudy SCT085 35 13 26% 34 76.15 0.0
01 15:15 Vrbl 7 16.09 A Few Clouds FEW085 35 14 28% 34 76.17 0.0
01 14:55 SE 11 G 22 16.09 Fair CLR 34 13 28% 33 76.2 0.0
01 14:35 NE 13 16.09 A Few Clouds FEW080 35 14 28% 34 76.23 0.0
01 14:15 S 11 16.09 A Few Clouds FEW075 34 14 30% 33 76.23 0.0
01 13:55 SE 11 G 22 16.09 Partly Cloudy SCT070 SCT080 33 13 30% 32 76.25 0.0
01 13:35 E 11 16.09 A Few Clouds FEW070 33 14 32% 32 76.28 0.0
01 13:15 SE 7 G 22 16.09 Fair CLR 33 15 34% 33 76.3 0.0
01 12:55 E 13 16.09 Fair CLR 33 15 34% 33 76.33 0.0
01 12:35 Vrbl 11 G 20 16.09 Fair CLR 33 15 34% 33 76.35 0.0
01 12:15 Vrbl 7 G 20 16.09 Fair CLR 32 16 38% 32 76.35 0.0
01 11:55 S 11 16.09 Fair CLR 32 16 38% 32 76.38 0.0
01 11:35 Vrbl 9 G 20 16.09 Fair CLR 31 16 40% 31 76.4 0.0
01 11:15 S 17 16.09 Fair CLR 31 17 43% 31 76.4 0.0
01 10:55 SW 13 16.09 Fair CLR 30 16 43% 30 76.4 0.0
01 10:35 S 9 16.09 Fair CLR 29 16 45% 29 76.38 0.0
01 10:15 S 15 16.09 Fair CLR 29 18 51% 30 76.38 0.0
01 09:55 SW 17 16.09 Fair CLR 28 17 51% 29 76.4 0.0
01 09:35 SW 11 16.09 Fair CLR 27 19 62% 28 76.4 0.0
01 09:15 S 13 G 22 16.09 Fair CLR 26 20 70% 27 76.4 0.0
01 08:55 S 11 16.09 Fair CLR 25 20 74% 26 76.4 0.0
01 08:35 S 9 16.09 Fair CLR 24 19 74% 25 76.4 0.0
01 08:15 S 7 16.09 Fair CLR 23 19 78% 76.38 0.0
01 07:55 Calm 14.48 Fair CLR 23 19 78% 76.38 0.0
01 07:35 S 7 16.09 Fair CLR 22 19 83% 76.35 0.0
01 07:15 S 9 16.09 Fair CLR 22 19 83% 76.35 0.0
01 06:55 SE 7 16.09 Fair CLR 22 19 83% 76.35 0.0
01 06:35 SE 7 16.09 Fair CLR 22 19 83% 76.35 0.0
01 06:15 SE 7 16.09 Fair CLR 22 18 78% 76.33 0.0
01 05:55 S 11 16.09 Fair CLR 23 18 74% 76.33 0.0
01 05:35 SE 9 16.09 Fair CLR 23 18 74% 76.3 0.0
01 05:15 SE 11 16.09 Fair CLR 23 18 74% 76.3 0.0
01 04:55 S 13 16.09 Fair CLR 24 18 69% 25 76.3 0.0
01 04:35 SE 13 16.09 Fair CLR 23 17 69% 76.3 0.0
01 04:15 SE 9 16.09 Fair CLR 23 17 69% 76.3 0.0
01 03:55 SE 11 16.09 Fair CLR 24 17 65% 25 76.3 0.0
01 03:35 SE 9 16.09 Fair CLR 24 16 61% 25 76.3 0.0
01 03:20 SE 9 16.09 Fair CLR 24 16 61% 25 76.3 0.0
01 02:55 SE 9 16.09 Fair CLR 24 16 61% 25 76.28 0.0
01 02:35 SE 7 16.09 Fair CLR 25 16 57% 26 76.28 0.0
01 02:15 SE 9 16.09 Fair CLR 25 16 57% 26 76.3 0.0
01 01:55 SE 11 16.09 Fair CLR 25 15 54% 26 76.3 0.0
01 01:35 SE 9 16.09 Fair CLR 25 15 54% 26 76.28 0.0
01 01:15 SE 9 16.09 Fair CLR 25 15 54% 26 76.28 0.0
01 00:55 SE 9 16.09 A Few Clouds FEW050 26 15 51% 27 76.28 0.0
01 00:35 SE 7 16.09 Fair CLR 26 15 51% 27 76.25 0.0
01 00:15 SE 9 16.09 Fair CLR 26 15 51% 27 76.23 0.0
31 23:55 SE 9 16.09 Fair CLR 26 15 51% 27 76.23 0.0
31 23:35 SE 7 16.09 Fair CLR 27 15 48% 27 76.25 0.0
31 23:15 SE 9 16.09 Fair CLR 27 15 48% 27 76.23 0.0
31 22:55 SE 9 16.09 Light Rain CLR 27 15 48% 27 76.23 0.0
31 22:35 SE 9 16.09 Fair CLR 28 15 45% 28 76.23 0.0
31 22:15 E 11 16.09 Fair CLR 28 15 45% 28 76.23 0.0
31 21:55 E 11 16.09 Fair CLR 29 15 43% 29 76.2 0.0
31 21:35 SE 11 16.09 Fair CLR 29 15 43% 29 76.17 0.0
31 21:15 SE 13 16.09 Fair CLR 30 15 40% 30 76.15 0.0
31 20:55 SE 15 16.09 Fair CLR 31 15 38% 31 76.12 0.0
31 20:35 SE 15 16.09 Fair CLR 31 15 38% 31 76.12 0.0
31 20:15 SE 15 16.09 Fair CLR 32 15 36% 32 76.12 0.0
31 19:55 SE 22 16.09 Fair CLR 32 14 33% 31 76.1 0.0
31 19:35 SE 15 16.09 Fair CLR 33 14 32% 32 76.1 0.0
31 19:15 SE 20 16.09 A Few Clouds FEW080 34 14 30% 33 76.07 0.0
Date Time (cdt) Wind (kph) Vis. (km) Weather Sky Cond. Air Dwpt Max. Min. Relative Humidity Wind Chill (°C) Heat Index (°C) altimeter (cm) sea level (mb) 1 hr 3 hr 6 hr
6 hour
Temperature (ºC) Pressure Precipitation (cm)